EKKA/KRP METAR and TAF weather

Enter ICAO airport designator
Station Type Date Time Source
EKKA METAR 2021/03/02 03:20 UTC NOAA

EKKA 020320Z AUTO 27008KT 0250 R09R/0800N R27L/0800U -RA FG VV002 01/01 Q1033


Station Type Date Time Source
EKKA Decoded METAR 2021/03/02 03:20 UTC NOAA

Karup, Denmark (EKKA) 56-18N 009-07E 53M
Mar 01, 2021 - 10:20 PM EST / 2021.03.02 0320 UTC
Wind: from the W (270 degrees) at 9 MPH (8 KT):0
Visibility: less than 1 mile:0
Sky conditions: obscured
Weather: light rain; fog
Temperature: 33 F (1 C)
Windchill: 24 F (-4 C):1
Dew Point: 33 F (1 C)
Relative Humidity: 100%
Pressure (altimeter): 30.50 in. Hg (1033 hPa)
ob: EKKA 020320Z AUTO 27008KT 0250 R09R/0800N R27L/0800U -RA FG VV002 01/01 Q1033
cycle: 3

Station Type Date Time Source
EKKA TAF 2021/03/02 03:30 UTC NOAA

TAF TAF EKKA 020203Z 0203/0303 29005KT 0200 FG VV001
TEMPO 0203/0208 1800 BR BKN003
BECMG 0208/0210 9999 NSW BKN015
BECMG 0219/0221 0200 FG VV001
TEMPO 0221/0303 1800 BR BKN003

Example: see airport list